Manchester, New Hampshire
Current Conditions -  °F | °C
As of 7:53 AM on Wednesday 22 Oct 2014 (Local Time) from KMHT Reporting Station
Haze Haze  
Wind Chill: 50°   Ceiling: 800
Heat Index: 50°   Visibility: 5mi
Dew Point: 46°   Wind: 13mph
Humidity: 86%   Direction: 20°NNE
Pressure: 30.06"   Gusts: 21mph
Location:  42.99°N, 71.46°W
Report Text: KMHT 221153Z 02011G18KT 5SM BR OVC008 10/08 A3006 RMK AO2 RAE28 CIG 007V011 SLP193 P0000 60001 70005 T01000078 10106 20100 53015
Loading
Personal Weather Stations






























Interactive Weather Map
Tropical Storm Tracking
New forecast layout! Learn more

10-Day Weather Forecast

Advertisements
Track Severe Weather on mobile